Time;durP1;ratioP1;P1;durP2;ratioP2;P2;SDS_P1;SDS_P2;PMS_P1;PMS_P2;Temp;Humidity;BMP_temperature;BMP_pressure;BME280_temperature;BME280_humidity;BME280_pressure;Samples;Min_cycle;Max_cycle;Signal;HPM_P1;HPM_P2
2023/12/21 00:00:17;;;;;;;6.83;6.53;;;6.90;32.10;;;;;;5089672;28;20379;-52
2023/12/21 00:02:43;;;;;;;6.00;5.80;;;6.80;32.40;;;;;;5086093;28;20210;-52
2023/12/21 00:05:09;;;;;;;6.13;5.90;;;6.80;32.70;;;;;;5108521;28;20174;-54
2023/12/21 00:07:35;;;;;;;6.17;5.87;;;6.90;32.60;;;;;;5111634;28;20174;-55
2023/12/21 00:10:00;;;;;;;5.40;5.20;;;6.90;32.10;;;;;;5093349;28;20443;-56
2023/12/21 00:12:26;;;;;;;6.37;6.07;;;6.90;32.10;;;;;;5086043;28;20208;-54
2023/12/21 00:14:52;;;;;;;5.57;5.37;;;6.90;32.30;;;;;;5094835;28;20186;-53
2023/12/21 00:17:17;;;;;;;5.70;5.50;;;7.00;31.50;;;;;;5113111;28;20721;-56
2023/12/21 00:19:43;;;;;;;5.37;5.17;;;7.00;32.40;;;;;;5095097;28;20615;-56
2023/12/21 00:22:08;;;;;;;5.30;5.10;;;7.00;33.10;;;;;;5093440;28;20599;-55
2023/12/21 00:24:34;;;;;;;5.63;5.43;;;6.90;33.20;;;;;;5095366;28;20212;-55
2023/12/21 00:27:00;;;;;;;5.80;5.60;;;7.00;33.10;;;;;;5097335;28;20189;-55
2023/12/21 00:29:25;;;;;;;5.80;5.60;;;6.90;34.00;;;;;;5112694;28;20209;-54
2023/12/21 00:31:51;;;;;;;6.83;6.30;;;6.80;33.10;;;;;;5095074;28;20190;-56
2023/12/21 00:34:17;;;;;;;5.50;5.30;;;6.90;34.40;;;;;;5113147;28;20205;-54
2023/12/21 00:36:45;;;;;;;5.63;5.47;;;6.90;33.60;;;;;;5113365;28;20261;-55
2023/12/21 00:39:10;;;;;;;5.30;5.20;;;6.80;34.50;;;;;;5096973;28;20204;-56
2023/12/21 00:41:36;;;;;;;5.37;5.17;;;6.80;33.50;;;;;;5095201;28;20434;-56
2023/12/21 00:44:02;;;;;;;5.30;5.10;;;6.80;33.80;;;;;;5095155;28;20213;-56
2023/12/21 00:46:28;;;;;;;4.90;4.80;;;6.90;33.90;;;;;;5113386;28;20231;-50
2023/12/21 00:48:53;;;;;;;5.63;5.33;;;6.90;33.20;;;;;;5094622;28;20623;-53
2023/12/21 00:51:19;;;;;;;5.17;5.07;;;6.90;33.50;;;;;;5094911;28;20182;-56
2023/12/21 00:53:45;;;;;;;5.07;4.90;;;6.90;33.40;;;;;;5095163;28;20254;-56
2023/12/21 00:56:10;;;;;;;5.20;5.00;;;7.00;33.80;;;;;;5094870;28;20255;-56
2023/12/21 00:58:36;;;;;;;5.00;4.83;;;7.00;33.10;;;;;;5094303;28;20197;-55
2023/12/21 01:01:01;;;;;;;5.23;5.03;;;6.90;33.50;;;;;;5094920;28;20185;-56
2023/12/21 01:03:27;;;;;;;5.20;5.10;;;6.90;34.10;;;;;;5094884;28;20634;-52
2023/12/21 01:05:53;;;;;;;5.40;5.20;;;6.90;34.00;;;;;;5113146;28;20177;-56
2023/12/21 01:08:18;;;;;;;5.60;5.30;;;6.90;34.00;;;;;;5093650;28;20190;-55
2023/12/21 01:10:44;;;;;;;5.63;5.50;;;6.90;33.90;;;;;;5094654;28;20186;-55
2023/12/21 01:13:09;;;;;;;5.80;5.60;;;6.90;34.40;;;;;;5112946;28;20185;-56
2023/12/21 01:15:35;;;;;;;5.53;5.33;;;6.90;34.40;;;;;;5094755;28;20235;-49
2023/12/21 01:18:01;;;;;;;5.10;5.00;;;6.90;34.30;;;;;;5113769;28;20193;-51
2023/12/21 01:20:27;;;;;;;4.90;4.80;;;6.90;34.50;;;;;;5094844;28;20810;-55
2023/12/21 01:22:52;;;;;;;4.87;4.77;;;6.90;34.50;;;;;;5094617;28;20201;-53
2023/12/21 01:25:18;;;;;;;5.00;4.90;;;6.90;34.80;;;;;;5094306;28;20186;-53
2023/12/21 01:27:43;;;;;;;5.17;4.77;;;6.90;34.60;;;;;;5094178;28;20178;-55
2023/12/21 01:30:10;;;;;;;5.33;5.07;;;6.90;34.50;;;;;;5094286;28;20258;-55
2023/12/21 01:32:35;;;;;;;5.20;5.10;;;6.90;35.10;;;;;;5094227;28;20536;-55
2023/12/21 01:35:01;;;;;;;5.33;5.20;;;6.90;35.20;;;;;;5094428;28;20431;-55
2023/12/21 01:37:27;;;;;;;4.73;4.63;;;6.90;34.50;;;;;;5094379;28;20715;-56
2023/12/21 01:39:52;;;;;;;5.40;5.20;;;6.90;34.50;;;;;;5093786;28;20402;-55
2023/12/21 01:42:18;;;;;;;5.30;5.20;;;7.00;34.80;;;;;;5093875;28;20634;-56
2023/12/21 01:44:43;;;;;;;5.10;5.00;;;7.00;34.20;;;;;;5112600;28;20234;-55
2023/12/21 01:47:10;;;;;;;5.90;5.70;;;6.90;33.80;;;;;;5112426;28;20633;-54
2023/12/21 01:49:35;;;;;;;6.13;5.80;;;7.00;34.80;;;;;;5093767;28;20265;-55
2023/12/21 01:52:01;;;;;;;5.23;5.03;;;7.00;33.70;;;;;;5094053;28;20455;-54
2023/12/21 01:54:27;;;;;;;5.13;5.00;;;6.90;34.10;;;;;;5093940;28;20200;-56
2023/12/21 01:56:53;;;;;;;5.40;5.20;;;7.00;33.90;;;;;;5094053;28;20455;-53
2023/12/21 01:59:19;;;;;;;5.47;5.27;;;6.90;33.90;;;;;;5093145;28;20494;-55
2023/12/21 02:01:45;;;;;;;5.23;5.13;;;6.90;34.30;;;;;;5094060;28;20189;-53
2023/12/21 02:04:10;;;;;;;4.77;4.67;;;6.90;33.80;;;;;;5093869;28;20416;-56
2023/12/21 02:06:36;;;;;;;5.27;5.10;;;7.00;33.70;;;;;;5094075;28;20260;-56
2023/12/21 02:09:02;;;;;;;4.90;4.80;;;7.00;33.20;;;;;;5093620;28;20208;-54
2023/12/21 02:11:28;;;;;;;5.30;5.10;;;7.00;33.10;;;;;;5093788;28;20507;-56
2023/12/21 02:13:53;;;;;;;5.50;5.30;;;7.10;33.50;;;;;;5112229;28;20661;-54
2023/12/21 02:16:27;;;;;;;5.10;5.00;;;7.10;32.80;;;;;;5093782;28;20186;-56
2023/12/21 02:18:53;;;;;;;5.60;5.40;;;7.20;32.60;;;;;;5093463;28;20209;-55
2023/12/21 02:21:19;;;;;;;4.93;4.83;;;7.20;32.60;;;;;;5115242;28;20416;-56
2023/12/21 02:23:46;;;;;;;4.93;4.83;;;7.10;32.50;;;;;;5116279;28;20181;-55
2023/12/21 02:26:13;;;;;;;5.50;5.30;;;7.10;33.00;;;;;;5115996;28;20626;-54
2023/12/21 02:28:39;;;;;;;5.93;5.73;;;7.10;33.20;;;;;;5097268;28;20480;-55
2023/12/21 02:31:04;;;;;;;6.00;5.70;;;7.10;33.40;;;;;;5097776;28;20427;-57
2023/12/21 02:33:30;;;;;;;5.70;5.50;;;7.10;33.30;;;;;;5115741;28;20184;-56
2023/12/21 02:35:56;;;;;;;5.20;5.10;;;7.00;33.50;;;;;;5097746;28;20181;-55
2023/12/21 02:38:23;;;;;;;5.40;5.23;;;7.00;33.70;;;;;;5096941;28;20198;-54
2023/12/21 02:40:49;;;;;;;4.87;4.77;;;7.00;33.70;;;;;;5097632;28;20594;-55
2023/12/21 02:43:14;;;;;;;5.70;5.50;;;7.00;33.90;;;;;;5097252;28;20449;-55
2023/12/21 02:45:40;;;;;;;5.40;5.30;;;7.00;33.80;;;;;;5097543;28;20219;-55
2023/12/21 02:48:06;;;;;;;5.60;5.40;;;7.00;34.20;;;;;;5096981;28;20224;-54
2023/12/21 02:50:32;;;;;;;5.10;4.90;;;7.00;33.90;;;;;;5097120;28;20192;-53
2023/12/21 02:52:57;;;;;;;4.70;4.60;;;7.00;34.00;;;;;;5097675;28;20416;-56
2023/12/21 02:55:23;;;;;;;5.07;4.97;;;7.00;33.50;;;;;;5097133;28;20229;-53
2023/12/21 02:57:49;;;;;;;5.20;5.10;;;7.10;33.50;;;;;;5096650;28;20206;-55
2023/12/21 03:00:15;;;;;;;5.00;4.90;;;7.00;33.70;;;;;;5096977;28;20265;-54
2023/12/21 03:02:40;;;;;;;5.40;5.30;;;7.10;33.30;;;;;;5097497;28;20170;-53
2023/12/21 03:05:06;;;;;;;5.47;5.33;;;7.10;33.40;;;;;;5097206;28;20836;-55
2023/12/21 03:07:32;;;;;;;5.10;5.00;;;7.20;33.80;;;;;;5096801;28;20634;-55
2023/12/21 03:09:57;;;;;;;5.20;5.00;;;7.20;33.30;;;;;;5095880;28;20186;-53
2023/12/21 03:12:23;;;;;;;5.23;5.13;;;7.20;33.60;;;;;;5096616;28;20192;-53
2023/12/21 03:14:48;;;;;;;5.43;5.23;;;7.20;34.50;;;;;;5096976;28;20182;-55
2023/12/21 03:17:14;;;;;;;5.50;5.40;;;7.20;33.90;;;;;;5096817;28;20178;-54
2023/12/21 03:19:40;;;;;;;5.30;5.20;;;7.20;33.50;;;;;;5114493;28;20292;-56
2023/12/21 03:22:05;;;;;;;5.83;5.63;;;7.10;33.70;;;;;;5096472;28;20177;-56
2023/12/21 03:24:31;;;;;;;5.27;5.17;;;7.10;33.80;;;;;;5096658;28;20182;-55
2023/12/21 03:26:57;;;;;;;5.53;5.43;;;7.10;34.00;;;;;;5115052;28;20178;-56
2023/12/21 03:29:22;;;;;;;4.97;4.87;;;7.10;35.10;;;;;;5095970;28;20269;-53
2023/12/21 03:31:48;;;;;;;5.30;5.20;;;7.20;35.00;;;;;;5114254;28;20235;-53
2023/12/21 03:34:14;;;;;;;5.60;5.50;;;7.10;34.80;;;;;;5096396;28;20185;-56
2023/12/21 03:36:39;;;;;;;6.00;5.83;;;7.20;35.20;;;;;;5096753;28;20249;-54
2023/12/21 03:39:05;;;;;;;5.70;5.60;;;7.20;35.70;;;;;;5094464;28;20609;-54
2023/12/21 03:41:31;;;;;;;5.20;5.10;;;7.20;35.50;;;;;;5114283;28;20182;-54
2023/12/21 03:43:58;;;;;;;5.30;5.20;;;7.20;35.20;;;;;;5114406;28;20206;-56
2023/12/21 03:46:23;;;;;;;5.13;5.03;;;7.20;35.70;;;;;;5096105;28;20178;-56
2023/12/21 03:48:49;;;;;;;5.40;5.30;;;7.20;35.60;;;;;;5096037;28;20431;-54
2023/12/21 03:51:14;;;;;;;5.53;5.33;;;7.20;35.80;;;;;;5114057;28;20230;-52
2023/12/21 03:53:40;;;;;;;5.77;5.67;;;7.20;35.60;;;;;;5095338;28;20189;-54
2023/12/21 03:56:07;;;;;;;5.00;4.90;;;7.20;35.50;;;;;;5096135;28;20185;-55
2023/12/21 03:58:32;;;;;;;5.40;5.30;;;7.20;35.70;;;;;;5095219;28;20296;-53
2023/12/21 04:00:58;;;;;;;5.80;5.60;;;7.20;35.20;;;;;;5095986;28;20558;-55
2023/12/21 04:03:24;;;;;;;5.20;5.10;;;7.20;35.60;;;;;;5114107;28;20174;-55
2023/12/21 04:05:49;;;;;;;5.83;5.63;;;7.20;35.10;;;;;;5095965;28;20311;-57
2023/12/21 04:08:15;;;;;;;5.60;5.50;;;7.30;35.30;;;;;;5095380;28;20180;-53
2023/12/21 04:10:40;;;;;;;5.43;5.33;;;7.30;35.80;;;;;;5095701;28;20178;-56
2023/12/21 04:13:06;;;;;;;5.60;5.40;;;7.30;36.20;;;;;;5096086;28;20227;-56
2023/12/21 04:15:32;;;;;;;5.67;5.57;;;7.40;36.50;;;;;;5095571;28;20174;-56
2023/12/21 04:17:58;;;;;;;5.70;5.60;;;7.40;36.90;;;;;;5095121;28;20699;-55
2023/12/21 04:20:23;;;;;;;5.57;5.47;;;7.40;37.40;;;;;;5095311;28;20201;-53
2023/12/21 04:22:49;;;;;;;5.73;5.53;;;7.30;36.70;;;;;;5113971;28;21010;-54
2023/12/21 04:25:15;;;;;;;5.57;5.47;;;7.40;37.20;;;;;;5095531;28;20177;-52
2023/12/21 04:27:40;;;;;;;5.60;5.50;;;7.40;37.50;;;;;;5086798;28;20565;-54
2023/12/21 04:30:06;;;;;;;5.93;5.73;;;7.50;37.30;;;;;;5113764;28;20207;-55
2023/12/21 04:32:32;;;;;;;6.67;6.47;;;7.40;37.20;;;;;;5095005;28;20609;-53
2023/12/21 04:34:58;;;;;;;5.40;5.30;;;7.40;37.40;;;;;;5095384;28;20463;-53
2023/12/21 04:37:23;;;;;;;5.40;5.30;;;7.40;38.20;;;;;;5095032;28;20281;-56
2023/12/21 04:39:49;;;;;;;5.50;5.40;;;7.40;38.10;;;;;;5094854;28;20288;-50
2023/12/21 04:42:14;;;;;;;5.93;5.73;;;7.40;38.10;;;;;;5094501;28;20178;-55
2023/12/21 04:44:40;;;;;;;5.70;5.60;;;7.40;39.00;;;;;;5094893;28;20685;-55
2023/12/21 04:47:08;;;;;;;5.37;5.27;;;7.30;39.20;;;;;;5113490;28;20206;-53
2023/12/21 04:49:34;;;;;;;5.57;5.47;;;7.30;38.60;;;;;;5112535;28;20194;-54
2023/12/21 04:52:00;;;;;;;5.80;5.70;;;7.30;39.50;;;;;;5094940;28;20946;-56
2023/12/21 04:54:26;;;;;;;6.00;5.90;;;7.30;39.30;;;;;;5093568;28;20419;-54
2023/12/21 04:56:51;;;;;;;6.00;5.80;;;7.30;39.90;;;;;;5070300;28;20214;-56
2023/12/21 04:59:17;;;;;;;5.83;5.73;;;7.30;40.30;;;;;;5093417;28;20206;-54
2023/12/21 05:01:47;;;;;;;5.80;5.60;;;7.30;40.30;;;;;;5112219;28;20203;-51
2023/12/21 05:04:13;;;;;;;5.60;5.50;;;7.40;39.10;;;;;;5111756;28;20189;-55
2023/12/21 05:06:38;;;;;;;6.03;5.83;;;7.40;39.40;;;;;;5112306;28;20420;-52
2023/12/21 05:09:04;;;;;;;4.90;4.80;;;7.40;39.10;;;;;;5093521;28;20220;-56
2023/12/21 05:11:29;;;;;;;5.00;4.90;;;7.30;38.50;;;;;;5092438;28;20217;-56
2023/12/21 05:13:55;;;;;;;5.40;5.30;;;7.40;39.50;;;;;;5094033;28;20266;-56
2023/12/21 05:16:21;;;;;;;5.57;5.47;;;7.40;39.20;;;;;;5111937;28;20359;-53
2023/12/21 05:18:49;;;;;;;5.80;5.60;;;7.40;39.40;;;;;;5110858;28;20205;-56
2023/12/21 05:21:15;;;;;;;5.80;5.50;;;7.40;39.70;;;;;;5093497;28;20182;-56
2023/12/21 05:23:40;;;;;;;5.00;4.90;;;7.40;39.10;;;;;;5111824;28;20809;-56
2023/12/21 05:26:13;;;;;;;5.30;5.20;;;7.40;38.80;;;;;;5093136;28;20230;-56
2023/12/21 05:28:41;;;;;;;6.03;5.83;;;7.40;39.20;;;;;;5093701;28;20193;-54
2023/12/21 05:31:08;;;;;;;5.30;5.20;;;7.40;39.10;;;;;;5094230;28;20813;-55
2023/12/21 05:33:33;;;;;;;5.70;5.50;;;7.40;39.20;;;;;;5093001;28;20477;-56
2023/12/21 05:35:59;;;;;;;6.47;6.37;;;7.50;39.50;;;;;;5094252;28;20436;-55
2023/12/21 05:38:25;;;;;;;5.60;5.50;;;7.60;39.70;;;;;;5111845;28;20545;-52
2023/12/21 05:40:50;;;;;;;5.87;5.67;;;7.60;39.40;;;;;;5093279;28;20182;-52
2023/12/21 05:43:16;;;;;;;6.20;6.00;;;7.60;39.50;;;;;;5094101;28;20214;-52
2023/12/21 05:45:42;;;;;;;5.90;5.70;;;7.60;39.30;;;;;;5093944;28;20224;-54
2023/12/21 05:48:07;;;;;;;5.40;5.30;;;7.50;39.00;;;;;;5092769;28;20454;-54
2023/12/21 05:50:33;;;;;;;5.70;5.50;;;7.60;38.70;;;;;;5093765;28;20186;-52
2023/12/21 05:52:59;;;;;;;5.10;5.00;;;7.50;38.70;;;;;;5093950;28;20257;-51
2023/12/21 05:55:24;;;;;;;5.70;5.60;;;7.50;38.80;;;;;;5092957;28;20189;-53
2023/12/21 05:57:50;;;;;;;5.73;5.63;;;7.40;38.90;;;;;;5093267;28;20646;-54
2023/12/21 06:00:16;;;;;;;5.10;5.00;;;7.50;39.60;;;;;;5093652;28;20205;-53
2023/12/21 06:02:41;;;;;;;5.13;5.03;;;7.50;38.60;;;;;;5092938;28;20597;-56
2023/12/21 06:05:08;;;;;;;5.37;5.17;;;7.40;39.00;;;;;;5112024;28;20427;-55
2023/12/21 06:07:34;;;;;;;5.30;5.20;;;7.50;40.50;;;;;;5093359;28;20182;-52
2023/12/21 06:10:00;;;;;;;5.63;5.53;;;7.40;40.40;;;;;;5092562;28;20588;-52
2023/12/21 06:12:25;;;;;;;5.60;5.40;;;7.40;40.00;;;;;;5093459;28;21000;-54
2023/12/21 06:14:51;;;;;;;5.10;5.00;;;7.40;39.90;;;;;;5093750;28;20190;-53
2023/12/21 06:17:17;;;;;;;5.60;5.50;;;7.50;39.90;;;;;;5093001;28;20234;-55
2023/12/21 06:19:43;;;;;;;5.77;5.67;;;7.50;40.00;;;;;;5093032;28;20625;-55
2023/12/21 06:22:09;;;;;;;5.63;5.43;;;7.60;39.90;;;;;;5111899;28;20495;-56
2023/12/21 06:24:34;;;;;;;6.00;5.80;;;7.50;39.50;;;;;;5092699;28;20466;-54
2023/12/21 06:27:00;;;;;;;5.57;5.47;;;7.50;39.80;;;;;;5093672;28;20173;-52
2023/12/21 06:29:26;;;;;;;5.47;5.37;;;7.60;40.60;;;;;;5092759;28;20182;-54
2023/12/21 06:31:51;;;;;;;6.20;6.00;;;7.60;40.00;;;;;;5092713;28;20435;-55
2023/12/21 06:34:17;;;;;;;5.80;5.70;;;7.60;40.60;;;;;;5089979;28;20210;-53
2023/12/21 06:36:43;;;;;;;6.97;6.77;;;7.60;40.60;;;;;;5089172;28;20236;-51
2023/12/21 06:39:09;;;;;;;6.40;6.20;;;7.60;40.60;;;;;;5090273;28;20221;-52
2023/12/21 06:41:35;;;;;;;6.53;6.33;;;7.60;40.30;;;;;;5093102;28;20436;-49
2023/12/21 06:44:00;;;;;;;5.63;5.53;;;7.60;40.40;;;;;;5095602;28;20228;-46
2023/12/21 06:46:26;;;;;;;6.03;5.87;;;7.60;40.10;;;;;;5090315;28;20729;-50
2023/12/21 06:48:52;;;;;;;5.47;5.37;;;7.60;40.00;;;;;;5084507;28;20217;-55
2023/12/21 06:51:17;;;;;;;5.60;5.50;;;7.70;40.20;;;;;;5105065;28;20545;-52
2023/12/21 06:53:43;;;;;;;5.37;5.27;;;7.70;40.30;;;;;;5092314;28;20247;-50
2023/12/21 06:56:10;;;;;;;5.20;5.10;;;7.70;39.80;;;;;;5096816;28;20178;-48
2023/12/21 06:58:35;;;;;;;5.47;5.20;;;7.70;40.30;;;;;;5090790;28;20563;-54
2023/12/21 07:01:01;;;;;;;5.00;4.90;;;7.70;39.60;;;;;;5098994;28;20506;-50
2023/12/21 07:03:26;;;;;;;5.10;5.00;;;7.70;39.90;;;;;;5091649;28;20713;-50
2023/12/21 07:05:52;;;;;;;4.90;4.80;;;7.80;39.90;;;;;;5093698;28;20203;-55
2023/12/21 07:08:18;;;;;;;5.33;5.13;;;7.80;40.00;;;;;;5095490;28;20542;-52
2023/12/21 07:10:44;;;;;;;5.30;5.10;;;7.80;39.80;;;;;;5103167;28;20431;-55
2023/12/21 07:13:11;;;;;;;5.10;4.93;;;7.80;39.10;;;;;;5093482;28;20423;-52
2023/12/21 07:15:37;;;;;;;5.90;5.60;;;7.90;39.20;;;;;;5095137;28;20818;-54
2023/12/21 07:18:03;;;;;;;5.60;5.50;;;7.90;39.50;;;;;;5081351;28;20428;-55
2023/12/21 07:20:30;;;;;;;5.43;5.33;;;8.00;38.80;;;;;;5089951;28;20775;-55
2023/12/21 07:22:56;;;;;;;5.03;4.93;;;7.90;38.80;;;;;;5082453;28;20928;-55
2023/12/21 07:25:22;;;;;;;6.30;6.10;;;7.90;38.50;;;;;;5097598;28;20473;-55
2023/12/21 07:27:48;;;;;;;5.57;5.37;;;8.00;38.90;;;;;;5095034;28;20823;-55
2023/12/21 07:30:14;;;;;;;5.67;5.47;;;8.00;39.10;;;;;;5101591;28;20609;-53
2023/12/21 07:32:39;;;;;;;4.93;4.83;;;8.10;39.10;;;;;;5094469;28;20190;-55
2023/12/21 07:35:05;;;;;;;4.90;4.70;;;8.00;39.40;;;;;;5095574;28;20420;-55
2023/12/21 07:37:31;;;;;;;5.00;4.90;;;8.00;40.00;;;;;;5093899;28;20527;-55
2023/12/21 07:39:57;;;;;;;5.17;5.07;;;8.10;39.80;;;;;;5102690;28;20478;-55
2023/12/21 07:42:22;;;;;;;5.53;5.43;;;8.00;39.80;;;;;;5094000;28;20186;-53
2023/12/21 07:44:48;;;;;;;5.63;5.50;;;8.00;40.50;;;;;;5111241;27;20207;-55
2023/12/21 07:47:13;;;;;;;5.30;5.20;;;8.00;40.60;;;;;;5109818;27;20226;-53
2023/12/21 07:49:39;;;;;;;5.23;5.03;;;8.00;40.90;;;;;;5098219;27;20213;-50
2023/12/21 07:52:05;;;;;;;4.93;4.83;;;8.00;40.90;;;;;;5109579;27;20192;-53
2023/12/21 07:54:31;;;;;;;4.80;4.70;;;8.00;40.90;;;;;;5101190;28;20182;-54
2023/12/21 07:56:56;;;;;;;5.10;4.90;;;7.90;41.10;;;;;;5095139;28;20454;-52
2023/12/21 07:59:24;;;;;;;4.70;4.60;;;8.00;41.30;;;;;;5096673;28;20211;-52
2023/12/21 08:01:49;;;;;;;5.00;4.77;;;8.00;41.60;;;;;;5093959;28;20673;-49
2023/12/21 08:04:16;;;;;;;5.40;5.20;;;8.00;41.60;;;;;;5094526;28;20432;-53
2023/12/21 08:06:41;;;;;;;4.80;4.70;;;8.00;41.70;;;;;;5107439;27;20186;-55
2023/12/21 08:09:07;;;;;;;5.20;5.10;;;7.90;41.60;;;;;;5111631;27;20491;-52
2023/12/21 08:11:33;;;;;;;4.97;4.77;;;8.00;42.40;;;;;;5098224;27;20280;-52
2023/12/21 08:13:58;;;;;;;5.00;4.83;;;8.10;41.90;;;;;;5107493;28;20379;-52
2023/12/21 08:16:24;;;;;;;4.77;4.60;;;8.00;41.40;;;;;;5097248;28;20535;-55
2023/12/21 08:18:50;;;;;;;4.47;4.27;;;8.10;41.80;;;;;;5114587;27;20696;-49
2023/12/21 08:21:15;;;;;;;5.03;4.83;;;8.10;41.90;;;;;;5106333;27;20185;-53
2023/12/21 08:23:41;;;;;;;4.97;4.77;;;8.10;41.80;;;;;;5095152;27;20639;-50
2023/12/21 08:26:08;;;;;;;5.33;5.23;;;8.10;41.40;;;;;;5109835;28;20333;-49
2023/12/21 08:28:34;;;;;;;5.43;5.23;;;8.20;41.10;;;;;;5104056;27;20438;-52
2023/12/21 08:31:00;;;;;;;5.10;5.00;;;8.20;41.20;;;;;;5099584;27;20436;-52
2023/12/21 08:33:26;;;;;;;5.30;5.10;;;8.30;41.20;;;;;;5110568;27;20234;-54
2023/12/21 08:35:52;;;;;;;5.50;5.30;;;8.30;41.10;;;;;;5116414;27;20427;-47
2023/12/21 08:38:17;;;;;;;5.60;5.10;;;8.30;41.10;;;;;;5102116;28;20532;-49
2023/12/21 08:40:43;;;;;;;5.70;5.50;;;8.30;41.10;;;;;;5107246;28;20523;-48
2023/12/21 08:43:09;;;;;;;5.57;5.20;;;8.30;41.10;;;;;;5101170;27;20274;-51
2023/12/21 08:45:34;;;;;;;5.57;5.37;;;8.30;41.10;;;;;;5095139;28;20320;-54
2023/12/21 08:48:00;;;;;;;5.80;5.60;;;8.30;41.20;;;;;;5098530;27;20704;-51
2023/12/21 08:50:25;;;;;;;5.63;5.43;;;8.40;40.60;;;;;;5106669;27;20181;-49
2023/12/21 08:52:51;;;;;;;5.20;5.10;;;8.40;41.00;;;;;;5107754;28;20194;-51
2023/12/21 08:55:16;;;;;;;6.40;6.00;;;8.40;41.20;;;;;;5095935;28;20248;-49
2023/12/21 08:57:42;;;;;;;6.07;5.77;;;8.50;41.30;;;;;;5098850;27;20190;-52
2023/12/21 09:00:12;;;;;;;5.80;5.60;;;8.40;41.30;;;;;;5084679;28;20579;-51
2023/12/21 09:02:38;;;;;;;5.73;5.53;;;8.40;41.20;;;;;;5103653;28;20545;-49
2023/12/21 09:05:04;;;;;;;6.33;6.13;;;8.50;41.10;;;;;;5107623;27;20467;-51
2023/12/21 09:07:31;;;;;;;6.63;6.40;;;8.60;41.00;;;;;;5110477;28;20549;-55
2023/12/21 09:09:56;;;;;;;6.03;5.67;;;8.60;41.00;;;;;;5105823;27;20786;-53
2023/12/21 09:12:22;;;;;;;5.93;5.73;;;8.60;40.80;;;;;;5096191;28;20454;-54
2023/12/21 09:14:47;;;;;;;5.90;5.60;;;8.60;41.40;;;;;;5091556;28;20283;-55
2023/12/21 09:17:14;;;;;;;5.03;4.93;;;8.50;40.90;;;;;;5091890;27;20181;-52
2023/12/21 09:19:40;;;;;;;5.80;5.60;;;8.60;40.80;;;;;;5102928;28;20274;-54
2023/12/21 09:22:06;;;;;;;5.23;5.13;;;8.60;40.30;;;;;;5102879;27;20436;-54
2023/12/21 09:24:32;;;;;;;5.30;5.20;;;8.50;40.00;;;;;;5103654;27;20424;-52
2023/12/21 09:26:57;;;;;;;5.37;5.17;;;8.50;40.50;;;;;;5108192;27;20272;-52
2023/12/21 09:29:23;;;;;;;5.30;5.20;;;8.50;40.50;;;;;;5097362;28;20549;-49
2023/12/21 09:31:49;;;;;;;5.40;5.20;;;8.50;40.40;;;;;;5084635;28;20190;-48
2023/12/21 09:34:15;;;;;;;5.30;5.10;;;8.50;39.90;;;;;;5092641;28;20185;-48
2023/12/21 09:36:41;;;;;;;5.47;5.33;;;8.60;39.80;;;;;;5095533;28;20183;-49
2023/12/21 09:39:07;;;;;;;6.07;5.87;;;8.50;39.80;;;;;;5102172;28;20973;-48
2023/12/21 09:41:32;;;;;;;5.77;5.57;;;8.60;40.30;;;;;;5103273;28;20186;-48
2023/12/21 09:44:01;;;;;;;5.43;5.33;;;8.60;39.70;;;;;;5097688;28;20434;-52
2023/12/21 09:46:28;;;;;;;5.33;5.23;;;8.50;39.90;;;;;;5088783;28;20213;-52
2023/12/21 09:48:54;;;;;;;5.43;5.33;;;8.60;39.90;;;;;;5099822;27;20431;-50
2023/12/21 09:51:20;;;;;;;6.23;5.97;;;8.70;39.70;;;;;;5104988;28;20427;-46
2023/12/21 09:53:47;;;;;;;5.80;5.60;;;8.70;39.20;;;;;;5097815;27;20465;-49
2023/12/21 09:56:14;;;;;;;6.03;5.90;;;8.70;38.90;;;;;;5122170;27;20426;-47
2023/12/21 09:58:41;;;;;;;5.40;5.30;;;8.70;38.90;;;;;;5103403;28;20463;-49
2023/12/21 10:01:07;;;;;;;5.73;5.60;;;8.70;39.20;;;;;;5107146;28;20488;-49
2023/12/21 10:03:33;;;;;;;5.20;5.10;;;8.70;39.60;;;;;;5109898;28;20892;-53
2023/12/21 10:06:00;;;;;;;6.00;5.80;;;8.70;38.70;;;;;;5095179;28;20758;-50
2023/12/21 10:08:25;;;;;;;5.53;5.33;;;8.70;39.00;;;;;;5090229;28;20510;-52
2023/12/21 10:10:51;;;;;;;5.70;5.40;;;8.80;39.00;;;;;;5100595;28;20902;-47
2023/12/21 10:13:17;;;;;;;5.50;5.30;;;8.80;39.20;;;;;;5106670;28;20298;-49
2023/12/21 10:15:43;;;;;;;5.67;5.50;;;8.80;39.50;;;;;;5106785;28;20206;-49
2023/12/21 10:18:09;;;;;;;5.17;5.07;;;8.80;39.40;;;;;;5093022;28;20834;-48
2023/12/21 10:20:35;;;;;;;4.53;4.43;;;8.80;39.80;;;;;;5096069;28;20178;-47
2023/12/21 10:23:01;;;;;;;5.10;5.00;;;8.80;40.20;;;;;;5085459;28;20507;-47
2023/12/21 10:25:27;;;;;;;5.40;5.17;;;8.80;39.80;;;;;;5103862;28;20947;-48
2023/12/21 10:27:53;;;;;;;5.70;5.50;;;8.80;40.50;;;;;;5108475;28;20173;-50
2023/12/21 10:30:23;;;;;;;5.00;4.90;;;8.90;40.50;;;;;;5101278;28;20239;-49
2023/12/21 10:32:56;;;;;;;5.07;4.97;;;8.80;40.10;;;;;;5103524;28;20782;-50
2023/12/21 10:35:25;;;;;;;5.40;5.20;;;8.80;40.50;;;;;;5107619;28;20941;-47
2023/12/21 10:37:51;;;;;;;5.70;5.50;;;8.80;40.60;;;;;;5126147;27;20435;-50
2023/12/21 10:40:17;;;;;;;5.20;5.00;;;8.90;41.70;;;;;;5093977;28;20467;-54
2023/12/21 10:42:49;;;;;;;5.70;5.50;;;8.90;40.70;;;;;;5105476;27;20427;-52
2023/12/21 10:45:16;;;;;;;5.87;5.67;;;8.90;41.20;;;;;;5098999;27;20430;-51
2023/12/21 10:47:53;;;;;;;5.03;4.93;;;8.90;41.10;;;;;;5113385;28;20759;-53
2023/12/21 10:50:20;;;;;;;5.00;4.90;;;8.90;41.00;;;;;;5104741;27;20913;-51
2023/12/21 10:52:47;;;;;;;5.23;5.13;;;8.90;41.50;;;;;;5111392;27;20478;-48
2023/12/21 10:55:17;;;;;;;5.23;5.10;;;8.90;40.80;;;;;;5108983;27;20789;-47
2023/12/21 10:57:44;;;;;;;5.07;4.97;;;9.00;40.20;;;;;;5100011;27;20942;-49
2023/12/21 11:00:17;;;;;;;5.13;5.03;;;9.00;40.50;;;;;;5116379;27;20463;-51
2023/12/21 11:02:47;;;;;;;10.30;6.20;;;9.00;40.60;;;;;;5098048;28;20430;-51
2023/12/21 11:05:23;;;;;;;5.57;5.20;;;9.00;40.60;;;;;;5100011;27;20435;-49
2023/12/21 11:07:50;;;;;;;5.20;5.00;;;9.10;40.20;;;;;;5105045;27;20511;-53
2023/12/21 11:10:21;;;;;;;5.57;5.47;;;9.10;40.00;;;;;;5106865;28;20435;-50
2023/12/21 11:12:47;;;;;;;5.60;5.50;;;9.10;40.00;;;;;;5105160;27;20495;-49
2023/12/21 11:15:15;;;;;;;6.03;5.83;;;9.10;40.40;;;;;;5097519;28;20439;-50
2023/12/21 11:17:44;;;;;;;5.90;5.70;;;9.10;39.00;;;;;;5129889;27;20752;-50
2023/12/21 11:20:13;;;;;;;5.43;5.33;;;9.10;39.10;;;;;;5098674;28;20989;-53
2023/12/21 11:22:39;;;;;;;5.73;5.60;;;9.10;39.10;;;;;;5101913;28;20828;-49
2023/12/21 11:25:11;;;;;;;5.77;5.67;;;9.10;39.00;;;;;;5096389;28;20423;-55
2023/12/21 11:27:41;;;;;;;6.40;6.20;;;9.10;39.50;;;;;;5108794;27;20427;-51
2023/12/21 11:30:14;;;;;;;5.70;5.60;;;9.10;40.20;;;;;;5100297;27;20534;-51
2023/12/21 11:32:42;;;;;;;5.63;5.43;;;9.10;39.90;;;;;;5110824;27;20425;-53
2023/12/21 11:35:25;;;;;;;5.90;5.80;;;9.10;40.00;;;;;;5100241;27;20864;-55
2023/12/21 11:37:55;;;;;;;6.13;6.03;;;9.10;39.50;;;;;;5107918;27;20454;-53
2023/12/21 11:40:25;;;;;;;5.70;5.60;;;9.20;39.90;;;;;;5108097;27;20470;-53
2023/12/21 11:42:54;;;;;;;5.50;5.30;;;9.20;39.90;;;;;;5117086;27;20562;-52
2023/12/21 11:45:26;;;;;;;6.00;5.90;;;9.20;39.20;;;;;;5104174;27;20503;-54
2023/12/21 11:48:00;;;;;;;6.90;6.70;;;9.20;39.10;;;;;;5105021;28;20443;-53
2023/12/21 11:50:29;;;;;;;5.70;5.60;;;9.30;39.00;;;;;;5095943;28;20523;-55
2023/12/21 11:53:15;;;;;;;6.50;6.30;;;9.20;38.90;;;;;;5099463;27;20561;-52
2023/12/21 11:55:44;;;;;;;6.13;5.93;;;9.30;39.00;;;;;;5107517;28;20420;-53
2023/12/21 11:58:25;;;;;;;6.87;6.67;;;9.30;38.60;;;;;;5097287;28;20446;-53
2023/12/21 12:00:55;;;;;;;7.80;7.50;;;9.30;38.60;;;;;;5108101;28;20484;-54
2023/12/21 12:03:27;;;;;;;5.67;5.57;;;9.40;38.70;;;;;;5102067;27;20430;-50
2023/12/21 12:06:03;;;;;;;5.90;5.80;;;9.30;38.30;;;;;;5108258;27;20430;-52
2023/12/21 12:08:32;;;;;;;5.60;5.50;;;9.40;38.50;;;;;;5105206;27;20445;-54
2023/12/21 12:10:58;;;;;;;5.80;5.60;;;9.40;38.20;;;;;;5105300;28;20464;-54
2023/12/21 12:13:23;;;;;;;5.77;5.57;;;9.50;38.50;;;;;;5095265;28;20497;-53
2023/12/21 12:15:52;;;;;;;5.97;5.77;;;9.50;38.20;;;;;;5104198;28;20193;-53
2023/12/21 12:18:22;;;;;;;6.10;5.90;;;9.60;37.80;;;;;;5094982;28;20209;-50
2023/12/21 12:20:48;;;;;;;6.87;6.57;;;9.60;37.20;;;;;;5102730;28;20442;-54
2023/12/21 12:23:14;;;;;;;6.03;5.87;;;9.60;36.90;;;;;;5104464;28;20886;-52
2023/12/21 12:25:42;;;;;;;5.20;5.10;;;9.60;36.40;;;;;;5101411;28;20511;-53
2023/12/21 12:28:08;;;;;;;6.07;5.87;;;9.60;36.20;;;;;;5094494;28;20420;-54
2023/12/21 12:30:35;;;;;;;5.97;5.80;;;9.60;36.20;;;;;;5107323;27;20438;-53
2023/12/21 12:33:05;;;;;;;5.70;5.60;;;9.70;36.00;;;;;;5106855;27;20427;-53
2023/12/21 12:35:37;;;;;;;6.17;5.97;;;9.70;36.10;;;;;;5100945;28;20485;-52
2023/12/21 12:38:09;;;;;;;5.60;5.50;;;9.70;36.20;;;;;;5097690;27;21014;-49
2023/12/21 12:40:35;;;;;;;5.60;5.50;;;9.80;36.10;;;;;;5127564;27;20435;-53
2023/12/21 12:43:01;;;;;;;5.60;5.40;;;9.80;36.40;;;;;;5098922;28;20428;-50
2023/12/21 12:45:26;;;;;;;5.50;5.40;;;9.80;36.80;;;;;;5093334;28;20486;-50
2023/12/21 12:47:53;;;;;;;5.70;5.60;;;9.80;37.10;;;;;;5108172;27;20923;-50
2023/12/21 12:50:23;;;;;;;5.37;5.27;;;9.80;37.10;;;;;;5107110;27;20216;-55
2023/12/21 12:52:49;;;;;;;5.40;5.30;;;9.80;37.10;;;;;;5106102;28;20463;-55